sensor_id;sensor_type;location;lat;lon;timestamp;pressure;altitude;pressure_sealevel;temperature;humidity
68889;BME280;55930;47.412;8.790;2023-02-13T00:02:52;96258.00;;;2.82;100.00
68889;BME280;55930;47.412;8.790;2023-02-13T00:06:12;96257.19;;;2.71;100.00
68889;BME280;55930;47.412;8.790;2023-02-13T00:09:37;96252.34;;;2.77;100.00
68889;BME280;55930;47.412;8.790;2023-02-13T00:12:58;96250.44;;;2.74;100.00
68889;BME280;55930;47.412;8.790;2023-02-13T00:16:18;96250.78;;;2.65;100.00
68889;BME280;55930;47.412;8.790;2023-02-13T00:19:39;96241.84;;;2.69;100.00
68889;BME280;55930;47.412;8.790;2023-02-13T00:22:59;96236.63;;;2.77;100.00
68889;BME280;55930;47.412;8.790;2023-02-13T00:26:20;96242.53;;;2.66;100.00
68889;BME280;55930;47.412;8.790;2023-02-13T00:29:40;96245.88;;;2.60;100.00
68889;BME280;55930;47.412;8.790;2023-02-13T00:33:00;96245.50;;;2.58;100.00
68889;BME280;55930;47.412;8.790;2023-02-13T00:36:21;96248.50;;;2.60;100.00
68889;BME280;55930;47.412;8.790;2023-02-13T00:39:42;96250.44;;;2.70;100.00
68889;BME280;55930;47.412;8.790;2023-02-13T00:43:03;96247.78;;;2.63;100.00
68889;BME280;55930;47.412;8.790;2023-02-13T00:46:24;96244.69;;;2.50;100.00
68889;BME280;55930;47.412;8.790;2023-02-13T00:49:44;96254.06;;;2.51;100.00
68889;BME280;55930;47.412;8.790;2023-02-13T00:53:06;96256.28;;;2.49;100.00
68889;BME280;55930;47.412;8.790;2023-02-13T00:56:28;96258.09;;;2.42;100.00
68889;BME280;55930;47.412;8.790;2023-02-13T00:59:49;96260.69;;;2.38;100.00
68889;BME280;55930;47.412;8.790;2023-02-13T01:03:09;96251.34;;;2.41;100.00
68889;BME280;55930;47.412;8.790;2023-02-13T01:06:32;96253.59;;;2.42;100.00
68889;BME280;55930;47.412;8.790;2023-02-13T01:09:52;96253.97;;;2.37;100.00
68889;BME280;55930;47.412;8.790;2023-02-13T01:13:14;96258.41;;;2.33;100.00
68889;BME280;55930;47.412;8.790;2023-02-13T01:16:35;96262.97;;;2.43;100.00
68889;BME280;55930;47.412;8.790;2023-02-13T01:19:55;96262.53;;;2.34;100.00
68889;BME280;55930;47.412;8.790;2023-02-13T01:23:18;96261.75;;;2.30;100.00
68889;BME280;55930;47.412;8.790;2023-02-13T01:26:38;96260.97;;;2.26;100.00
68889;BME280;55930;47.412;8.790;2023-02-13T01:29:59;96262.06;;;2.21;100.00
68889;BME280;55930;47.412;8.790;2023-02-13T01:33:20;96262.03;;;2.18;100.00
68889;BME280;55930;47.412;8.790;2023-02-13T01:36:41;96269.56;;;2.23;100.00
68889;BME280;55930;47.412;8.790;2023-02-13T01:40:02;96264.63;;;2.18;100.00
68889;BME280;55930;47.412;8.790;2023-02-13T01:43:23;96266.38;;;2.03;100.00
68889;BME280;55930;47.412;8.790;2023-02-13T01:46:43;96270.06;;;1.95;100.00
68889;BME280;55930;47.412;8.790;2023-02-13T01:50:12;96275.69;;;2.01;100.00
68889;BME280;55930;47.412;8.790;2023-02-13T01:53:55;96274.94;;;2.00;100.00
68889;BME280;55930;47.412;8.790;2023-02-13T01:57:18;96274.41;;;1.80;100.00
68889;BME280;55930;47.412;8.790;2023-02-13T02:00:44;96276.06;;;1.62;100.00
68889;BME280;55930;47.412;8.790;2023-02-13T02:04:21;96271.88;;;1.54;100.00
68889;BME280;55930;47.412;8.790;2023-02-13T02:07:44;96272.53;;;1.81;100.00
68889;BME280;55930;47.412;8.790;2023-02-13T02:11:10;96276.22;;;1.76;100.00
68889;BME280;55930;47.412;8.790;2023-02-13T02:14:36;96275.31;;;1.58;100.00
68889;BME280;55930;47.412;8.790;2023-02-13T02:17:58;96276.47;;;1.64;100.00
68889;BME280;55930;47.412;8.790;2023-02-13T02:39:35;96277.03;;;1.80;100.00
68889;BME280;55930;47.412;8.790;2023-02-13T02:46:37;96274.25;;;1.66;100.00
68889;BME280;55930;47.412;8.790;2023-02-13T02:54:13;96286.88;;;1.57;100.00
68889;BME280;55930;47.412;8.790;2023-02-13T03:01:39;96297.13;;;1.39;100.00
68889;BME280;55930;47.412;8.790;2023-02-13T03:05:26;96288.88;;;1.37;100.00
68889;BME280;55930;47.412;8.790;2023-02-13T03:09:12;96279.66;;;1.47;100.00
68889;BME280;55930;47.412;8.790;2023-02-13T03:16:42;96290.63;;;1.60;100.00
68889;BME280;55930;47.412;8.790;2023-02-13T03:20:32;96299.63;;;1.62;100.00
68889;BME280;55930;47.412;8.790;2023-02-13T03:27:53;96299.75;;;1.73;100.00
68889;BME280;55930;47.412;8.790;2023-02-13T03:31:53;96298.03;;;1.54;100.00
68889;BME280;55930;47.412;8.790;2023-02-13T03:42:52;96304.44;;;1.60;100.00
68889;BME280;55930;47.412;8.790;2023-02-13T03:46:17;96303.47;;;1.72;100.00
68889;BME280;55930;47.412;8.790;2023-02-13T03:49:46;96312.47;;;1.74;100.00
68889;BME280;55930;47.412;8.790;2023-02-13T03:53:28;96307.53;;;1.69;100.00
68889;BME280;55930;47.412;8.790;2023-02-13T03:56:52;96317.84;;;1.55;100.00
68889;BME280;55930;47.412;8.790;2023-02-13T04:00:38;96324.91;;;1.51;100.00
68889;BME280;55930;47.412;8.790;2023-02-13T04:04:24;96322.91;;;1.41;100.00
68889;BME280;55930;47.412;8.790;2023-02-13T04:07:47;96314.03;;;1.49;100.00
68889;BME280;55930;47.412;8.790;2023-02-13T04:14:37;96321.22;;;1.56;100.00
68889;BME280;55930;47.412;8.790;2023-02-13T04:21:26;96327.72;;;1.35;100.00
68889;BME280;55930;47.412;8.790;2023-02-13T04:24:47;96323.69;;;1.45;100.00
68889;BME280;55930;47.412;8.790;2023-02-13T04:28:08;96326.38;;;1.48;100.00
68889;BME280;55930;47.412;8.790;2023-02-13T04:31:28;96324.78;;;1.44;100.00
68889;BME280;55930;47.412;8.790;2023-02-13T04:34:48;96323.06;;;1.55;100.00
68889;BME280;55930;47.412;8.790;2023-02-13T04:38:09;96330.03;;;1.44;100.00
68889;BME280;55930;47.412;8.790;2023-02-13T04:41:32;96329.19;;;1.36;100.00
68889;BME280;55930;47.412;8.790;2023-02-13T04:44:52;96323.84;;;1.26;100.00
68889;BME280;55930;47.412;8.790;2023-02-13T04:48:12;96328.56;;;1.17;100.00
68889;BME280;55930;47.412;8.790;2023-02-13T04:51:33;96334.91;;;1.15;100.00
68889;BME280;55930;47.412;8.790;2023-02-13T04:54:53;96332.59;;;1.10;100.00
68889;BME280;55930;47.412;8.790;2023-02-13T04:58:13;96333.31;;;1.07;100.00
68889;BME280;55930;47.412;8.790;2023-02-13T05:01:34;96333.41;;;1.14;100.00
68889;BME280;55930;47.412;8.790;2023-02-13T05:04:54;96334.91;;;1.15;100.00
68889;BME280;55930;47.412;8.790;2023-02-13T05:08:17;96330.25;;;1.02;100.00
68889;BME280;55930;47.412;8.790;2023-02-13T05:11:37;96332.94;;;0.83;100.00
68889;BME280;55930;47.412;8.790;2023-02-13T05:14:58;96333.47;;;0.92;100.00
68889;BME280;55930;47.412;8.790;2023-02-13T05:18:19;96337.53;;;0.89;100.00
68889;BME280;55930;47.412;8.790;2023-02-13T05:21:39;96341.22;;;0.88;100.00
68889;BME280;55930;47.412;8.790;2023-02-13T05:25:18;96338.25;;;0.86;100.00
68889;BME280;55930;47.412;8.790;2023-02-13T05:28:38;96346.94;;;0.94;100.00
68889;BME280;55930;47.412;8.790;2023-02-13T05:32:17;96341.34;;;0.95;100.00
68889;BME280;55930;47.412;8.790;2023-02-13T05:35:38;96340.44;;;0.84;100.00
68889;BME280;55930;47.412;8.790;2023-02-13T05:38:59;96336.75;;;0.89;100.00
68889;BME280;55930;47.412;8.790;2023-02-13T05:42:19;96343.34;;;0.79;100.00
68889;BME280;55930;47.412;8.790;2023-02-13T05:45:39;96344.84;;;0.80;100.00
68889;BME280;55930;47.412;8.790;2023-02-13T05:49:00;96344.97;;;0.64;100.00
68889;BME280;55930;47.412;8.790;2023-02-13T05:52:20;96348.53;;;0.53;100.00
68889;BME280;55930;47.412;8.790;2023-02-13T05:55:40;96343.63;;;0.48;100.00
68889;BME280;55930;47.412;8.790;2023-02-13T05:59:03;96344.75;;;0.73;100.00
68889;BME280;55930;47.412;8.790;2023-02-13T06:02:24;96346.34;;;0.81;100.00
68889;BME280;55930;47.412;8.790;2023-02-13T06:05:44;96349.47;;;0.90;100.00
68889;BME280;55930;47.412;8.790;2023-02-13T06:09:04;96347.19;;;0.85;100.00
68889;BME280;55930;47.412;8.790;2023-02-13T06:12:25;96352.69;;;0.80;100.00
68889;BME280;55930;47.412;8.790;2023-02-13T06:15:45;96353.94;;;0.90;100.00
68889;BME280;55930;47.412;8.790;2023-02-13T06:19:06;96353.06;;;0.79;100.00
68889;BME280;55930;47.412;8.790;2023-02-13T06:22:26;96354.59;;;0.83;100.00
68889;BME280;55930;47.412;8.790;2023-02-13T06:25:47;96357.19;;;0.80;100.00
68889;BME280;55930;47.412;8.790;2023-02-13T06:29:07;96366.72;;;0.72;100.00
68889;BME280;55930;47.412;8.790;2023-02-13T06:32:28;96371.69;;;0.77;100.00
68889;BME280;55930;47.412;8.790;2023-02-13T06:35:48;96362.75;;;0.78;100.00
68889;BME280;55930;47.412;8.790;2023-02-13T06:39:09;96372.72;;;0.72;100.00
68889;BME280;55930;47.412;8.790;2023-02-13T06:42:30;96375.84;;;0.82;100.00
68889;BME280;55930;47.412;8.790;2023-02-13T06:45:50;96376.31;;;0.87;100.00
68889;BME280;55930;47.412;8.790;2023-02-13T06:49:13;96372.47;;;0.81;100.00
68889;BME280;55930;47.412;8.790;2023-02-13T06:52:33;96375.69;;;0.71;100.00
68889;BME280;55930;47.412;8.790;2023-02-13T06:55:55;96386.16;;;0.97;100.00
68889;BME280;55930;47.412;8.790;2023-02-13T06:59:18;96379.06;;;0.98;100.00
68889;BME280;55930;47.412;8.790;2023-02-13T07:02:39;96384.06;;;1.06;100.00
68889;BME280;55930;47.412;8.790;2023-02-13T07:06:00;96389.31;;;0.84;100.00
68889;BME280;55930;47.412;8.790;2023-02-13T07:09:21;96387.56;;;0.91;100.00
68889;BME280;55930;47.412;8.790;2023-02-13T07:12:42;96390.81;;;0.85;100.00
68889;BME280;55930;47.412;8.790;2023-02-13T07:16:02;96381.53;;;0.87;100.00
68889;BME280;55930;47.412;8.790;2023-02-13T07:19:23;96383.16;;;0.95;100.00
68889;BME280;55930;47.412;8.790;2023-02-13T07:22:48;96387.78;;;1.05;100.00
68889;BME280;55930;47.412;8.790;2023-02-13T07:26:09;96379.75;;;1.18;100.00
68889;BME280;55930;47.412;8.790;2023-02-13T07:29:30;96379.06;;;0.98;100.00
68889;BME280;55930;47.412;8.790;2023-02-13T07:32:50;96381.41;;;1.03;100.00
68889;BME280;55930;47.412;8.790;2023-02-13T07:36:11;96386.38;;;1.11;100.00
68889;BME280;55930;47.412;8.790;2023-02-13T07:39:31;96401.16;;;1.27;100.00
68889;BME280;55930;47.412;8.790;2023-02-13T07:42:52;96400.00;;;1.24;100.00
68889;BME280;55930;47.412;8.790;2023-02-13T07:46:12;96406.81;;;1.32;100.00
68889;BME280;55930;47.412;8.790;2023-02-13T07:49:33;96397.22;;;1.40;100.00
68889;BME280;55930;47.412;8.790;2023-02-13T07:52:54;96405.03;;;1.10;100.00
68889;BME280;55930;47.412;8.790;2023-02-13T07:56:14;96399.50;;;1.41;100.00
68889;BME280;55930;47.412;8.790;2023-02-13T07:59:34;96403.69;;;0.97;100.00
68889;BME280;55930;47.412;8.790;2023-02-13T08:03:00;96397.53;;;1.35;100.00
68889;BME280;55930;47.412;8.790;2023-02-13T08:06:21;96394.91;;;1.35;100.00
68889;BME280;55930;47.412;8.790;2023-02-13T08:09:45;96396.53;;;1.43;100.00
68889;BME280;55930;47.412;8.790;2023-02-13T08:13:24;96396.16;;;1.44;100.00
68889;BME280;55930;47.412;8.790;2023-02-13T08:16:46;96400.59;;;1.40;100.00
68889;BME280;55930;47.412;8.790;2023-02-13T08:20:07;96397.81;;;1.56;100.00
68889;BME280;55930;47.412;8.790;2023-02-13T08:23:28;96402.44;;;1.66;100.00
68889;BME280;55930;47.412;8.790;2023-02-13T08:26:48;96397.50;;;1.61;100.00
68889;BME280;55930;47.412;8.790;2023-02-13T08:30:09;96402.69;;;1.58;100.00
68889;BME280;55930;47.412;8.790;2023-02-13T08:33:29;96400.69;;;1.77;100.00
68889;BME280;55930;47.412;8.790;2023-02-13T08:36:50;96404.81;;;1.78;100.00
68889;BME280;55930;47.412;8.790;2023-02-13T08:40:11;96405.78;;;1.97;100.00
68889;BME280;55930;47.412;8.790;2023-02-13T08:43:31;96410.59;;;1.91;100.00
68889;BME280;55930;47.412;8.790;2023-02-13T08:46:54;96402.16;;;2.08;100.00
68889;BME280;55930;47.412;8.790;2023-02-13T08:50:15;96404.13;;;2.15;100.00
68889;BME280;55930;47.412;8.790;2023-02-13T08:53:36;96401.84;;;2.13;100.00
68889;BME280;55930;47.412;8.790;2023-02-13T08:56:56;96402.34;;;2.26;100.00
68889;BME280;55930;47.412;8.790;2023-02-13T09:00:17;96411.91;;;2.45;100.00
68889;BME280;55930;47.412;8.790;2023-02-13T09:03:37;96407.47;;;2.52;100.00
68889;BME280;55930;47.412;8.790;2023-02-13T09:06:58;96413.72;;;2.81;100.00
68889;BME280;55930;47.412;8.790;2023-02-13T09:10:19;96414.56;;;2.92;100.00
68889;BME280;55930;47.412;8.790;2023-02-13T09:13:41;96411.09;;;2.81;100.00
68889;BME280;55930;47.412;8.790;2023-02-13T09:17:04;96416.16;;;3.07;100.00
68889;BME280;55930;47.412;8.790;2023-02-13T09:20:25;96419.16;;;2.21;100.00
68889;BME280;55930;47.412;8.790;2023-02-13T09:23:45;96419.59;;;3.15;100.00
68889;BME280;55930;47.412;8.790;2023-02-13T09:27:08;96411.81;;;3.26;100.00
68889;BME280;55930;47.412;8.790;2023-02-13T09:30:31;96418.66;;;3.41;100.00
68889;BME280;55930;47.412;8.790;2023-02-13T09:33:51;96418.78;;;3.66;100.00
68889;BME280;55930;47.412;8.790;2023-02-13T09:37:12;96414.13;;;3.38;100.00
68889;BME280;55930;47.412;8.790;2023-02-13T09:40:41;96420.47;;;3.33;100.00
68889;BME280;55930;47.412;8.790;2023-02-13T09:44:11;96417.16;;;3.43;100.00
68889;BME280;55930;47.412;8.790;2023-02-13T09:47:53;96416.63;;;3.85;100.00
68889;BME280;55930;47.412;8.790;2023-02-13T09:51:15;96423.97;;;3.55;100.00
68889;BME280;55930;47.412;8.790;2023-02-13T09:54:37;96413.28;;;3.92;100.00
68889;BME280;55930;47.412;8.790;2023-02-13T09:58:31;96417.50;;;4.25;100.00
68889;BME280;55930;47.412;8.790;2023-02-13T10:01:56;96412.38;;;4.78;100.00
68889;BME280;55930;47.412;8.790;2023-02-13T10:09:12;96415.72;;;5.50;97.26
68889;BME280;55930;47.412;8.790;2023-02-13T10:12:42;96420.16;;;5.88;92.31
68889;BME280;55930;47.412;8.790;2023-02-13T10:16:15;96419.69;;;6.14;91.08
68889;BME280;55930;47.412;8.790;2023-02-13T10:19:45;96427.47;;;6.36;89.83
68889;BME280;55930;47.412;8.790;2023-02-13T10:23:35;96422.16;;;7.46;85.71
68889;BME280;55930;47.412;8.790;2023-02-13T10:27:03;96415.75;;;7.81;80.65
68889;BME280;55930;47.412;8.790;2023-02-13T10:30:35;96415.78;;;9.19;74.28
68889;BME280;55930;47.412;8.790;2023-02-13T10:34:01;96413.47;;;10.79;66.52
68889;BME280;55930;47.412;8.790;2023-02-13T10:37:23;96401.06;;;13.60;54.24
68889;BME280;55930;47.412;8.790;2023-02-13T10:41:04;96399.25;;;12.97;56.93
68889;BME280;55930;47.412;8.790;2023-02-13T10:55:01;96384.38;;;21.48;31.84
68889;BME280;55930;47.412;8.790;2023-02-13T11:02:26;96373.72;;;21.98;30.33
68889;BME280;55930;47.412;8.790;2023-02-13T11:05:48;96374.09;;;21.04;31.60
68889;BME280;55930;47.412;8.790;2023-02-13T11:09:10;96362.38;;;18.80;35.80
68889;BME280;55930;47.412;8.790;2023-02-13T11:12:33;96364.22;;;16.19;41.33
68889;BME280;55930;47.412;8.790;2023-02-13T11:15:59;96351.31;;;13.44;49.09
68889;BME280;55930;47.412;8.790;2023-02-13T11:22:43;96354.22;;;14.33;49.05
68889;BME280;55930;47.412;8.790;2023-02-13T11:29:31;96348.00;;;19.90;35.16
68889;BME280;55930;47.412;8.790;2023-02-13T11:36:26;96343.53;;;21.23;32.86
68889;BME280;55930;47.412;8.790;2023-02-13T11:39:52;96329.44;;;21.67;32.47
68889;BME280;55930;47.412;8.790;2023-02-13T11:43:18;96323.38;;;23.31;29.45
68889;BME280;55930;47.412;8.790;2023-02-13T11:46:45;96315.13;;;20.80;33.40
68889;BME280;55930;47.412;8.790;2023-02-13T11:53:47;96296.06;;;22.21;31.17
68889;BME280;55930;47.412;8.790;2023-02-13T12:00:42;96285.97;;;22.43;30.54
68889;BME280;55930;47.412;8.790;2023-02-13T12:07:28;96269.22;;;23.25;30.48
68889;BME280;55930;47.412;8.790;2023-02-13T12:10:49;96256.56;;;19.49;35.00
68889;BME280;55930;47.412;8.790;2023-02-13T12:14:18;96252.19;;;22.89;30.87
68889;BME280;55930;47.412;8.790;2023-02-13T12:17:41;96241.59;;;20.05;33.46
68889;BME280;55930;47.412;8.790;2023-02-13T12:31:28;96290.81;;;17.30;41.76
68889;BME280;55930;47.412;8.790;2023-02-13T12:42:46;96235.63;;;24.10;28.58
68889;BME280;55930;47.412;8.790;2023-02-13T12:49:50;96246.91;;;22.28;30.92
68889;BME280;55930;47.412;8.790;2023-02-13T13:03:57;96285.00;;;23.21;29.12
68889;BME280;55930;47.412;8.790;2023-02-13T13:11:28;96278.69;;;23.89;28.34
68889;BME280;55930;47.412;8.790;2023-02-13T13:15:26;96282.50;;;25.27;27.27
68889;BME280;55930;47.412;8.790;2023-02-13T13:22:34;96278.34;;;24.34;28.13
68889;BME280;55930;47.412;8.790;2023-02-13T13:29:39;96288.56;;;17.96;37.79
68889;BME280;55930;47.412;8.790;2023-02-13T13:33:09;96280.13;;;14.55;46.82
68889;BME280;55930;47.412;8.790;2023-02-13T13:36:47;96282.06;;;16.58;43.06
68889;BME280;55930;47.412;8.790;2023-02-13T13:47:48;96267.59;;;21.97;31.26
68889;BME280;55930;47.412;8.790;2023-02-13T13:51:15;96269.69;;;22.71;30.51
68889;BME280;55930;47.412;8.790;2023-02-13T13:54:41;96273.91;;;22.56;31.02
68889;BME280;55930;47.412;8.790;2023-02-13T13:58:20;96274.19;;;23.21;29.85
68889;BME280;55930;47.412;8.790;2023-02-13T14:01:41;96274.22;;;22.02;31.84
68889;BME280;55930;47.412;8.790;2023-02-13T14:19:05;96283.47;;;15.60;44.31
68889;BME280;55930;47.412;8.790;2023-02-13T14:22:43;96277.88;;;16.66;42.92
68889;BME280;55930;47.412;8.790;2023-02-13T14:29:36;96269.44;;;20.65;34.63
68889;BME280;55930;47.412;8.790;2023-02-13T14:33:00;96272.34;;;17.61;39.32
68889;BME280;55930;47.412;8.790;2023-02-13T14:36:26;96276.81;;;17.93;39.13
68889;BME280;55930;47.412;8.790;2023-02-13T14:40:11;96271.72;;;15.48;43.43
68889;BME280;55930;47.412;8.790;2023-02-13T14:43:46;96263.00;;;15.90;44.00
68889;BME280;55930;47.412;8.790;2023-02-13T14:47:34;96268.59;;;14.68;45.37
68889;BME280;55930;47.412;8.790;2023-02-13T14:50:59;96272.03;;;11.65;54.45
68889;BME280;55930;47.412;8.790;2023-02-13T14:54:29;96272.69;;;12.92;51.52
68889;BME280;55930;47.412;8.790;2023-02-13T14:58:03;96274.44;;;13.95;49.27
68889;BME280;55930;47.412;8.790;2023-02-13T15:01:38;96269.66;;;13.03;51.16
68889;BME280;55930;47.412;8.790;2023-02-13T15:05:05;96263.81;;;12.95;52.15
68889;BME280;55930;47.412;8.790;2023-02-13T15:08:33;96252.59;;;11.94;55.32
68889;BME280;55930;47.412;8.790;2023-02-13T15:12:00;96270.47;;;12.31;54.81
68889;BME280;55930;47.412;8.790;2023-02-13T15:15:24;96270.56;;;12.15;54.62
68889;BME280;55930;47.412;8.790;2023-02-13T15:18:50;96263.91;;;11.56;57.20
68889;BME280;55930;47.412;8.790;2023-02-13T15:22:29;96266.78;;;11.49;58.13
68889;BME280;55930;47.412;8.790;2023-02-13T15:25:57;96262.03;;;10.99;58.99
68889;BME280;55930;47.412;8.790;2023-02-13T15:29:19;96256.63;;;11.02;60.01
68889;BME280;55930;47.412;8.790;2023-02-13T15:32:40;96255.72;;;11.09;59.74
68889;BME280;55930;47.412;8.790;2023-02-13T15:36:05;96257.34;;;10.74;60.79
68889;BME280;55930;47.412;8.790;2023-02-13T15:39:28;96254.53;;;10.16;63.87
68889;BME280;55930;47.412;8.790;2023-02-13T15:42:49;96262.22;;;10.11;65.48
68889;BME280;55930;47.412;8.790;2023-02-13T15:46:34;96262.69;;;9.73;66.80
68889;BME280;55930;47.412;8.790;2023-02-13T15:49:55;96259.97;;;9.37;68.80
68889;BME280;55930;47.412;8.790;2023-02-13T15:53:17;96262.06;;;8.63;72.20
68889;BME280;55930;47.412;8.790;2023-02-13T15:56:43;96262.88;;;8.37;73.56
68889;BME280;55930;47.412;8.790;2023-02-13T16:00:06;96265.06;;;7.88;76.92
68889;BME280;55930;47.412;8.790;2023-02-13T16:03:31;96254.00;;;7.70;77.39
68889;BME280;55930;47.412;8.790;2023-02-13T16:06:54;96247.34;;;7.28;79.80
68889;BME280;55930;47.412;8.790;2023-02-13T16:10:29;96254.56;;;6.86;81.69
68889;BME280;55930;47.412;8.790;2023-02-13T16:17:28;96247.19;;;6.26;86.25
68889;BME280;55930;47.412;8.790;2023-02-13T16:20:53;96249.66;;;5.96;87.44
68889;BME280;55930;47.412;8.790;2023-02-13T16:24:17;96244.50;;;5.74;88.13
68889;BME280;55930;47.412;8.790;2023-02-13T16:27:51;96245.78;;;5.45;89.63
68889;BME280;55930;47.412;8.790;2023-02-13T16:31:16;96245.53;;;5.18;90.41
68889;BME280;55930;47.412;8.790;2023-02-13T16:34:37;96231.31;;;4.94;91.33
68889;BME280;55930;47.412;8.790;2023-02-13T16:37:59;96244.50;;;4.73;92.88
68889;BME280;55930;47.412;8.790;2023-02-13T16:44:41;96246.78;;;4.46;94.55
68889;BME280;55930;47.412;8.790;2023-02-13T16:48:02;96244.16;;;4.07;96.61
68889;BME280;55930;47.412;8.790;2023-02-13T16:54:58;96255.34;;;3.72;98.12
68889;BME280;55930;47.412;8.790;2023-02-13T16:58:21;96261.31;;;3.62;98.32
68889;BME280;55930;47.412;8.790;2023-02-13T17:01:42;96264.22;;;3.36;100.00
68889;BME280;55930;47.412;8.790;2023-02-13T17:08:30;96267.13;;;3.13;100.00
68889;BME280;55930;47.412;8.790;2023-02-13T17:11:53;96269.28;;;2.93;100.00
68889;BME280;55930;47.412;8.790;2023-02-13T17:15:17;96267.69;;;2.75;100.00
68889;BME280;55930;47.412;8.790;2023-02-13T17:18:38;96267.22;;;2.62;100.00
68889;BME280;55930;47.412;8.790;2023-02-13T17:21:58;96278.13;;;2.67;100.00
68889;BME280;55930;47.412;8.790;2023-02-13T17:25:24;96277.97;;;2.46;100.00
68889;BME280;55930;47.412;8.790;2023-02-13T17:28:45;96281.34;;;2.47;100.00
68889;BME280;55930;47.412;8.790;2023-02-13T17:32:07;96275.50;;;2.20;100.00
68889;BME280;55930;47.412;8.790;2023-02-13T17:35:33;96276.22;;;2.13;100.00
68889;BME280;55930;47.412;8.790;2023-02-13T17:38:54;96269.81;;;2.11;100.00
68889;BME280;55930;47.412;8.790;2023-02-13T17:42:18;96282.66;;;1.82;100.00
68889;BME280;55930;47.412;8.790;2023-02-13T17:45:39;96280.75;;;1.79;100.00
68889;BME280;55930;47.412;8.790;2023-02-13T17:49:00;96287.00;;;1.71;100.00
68889;BME280;55930;47.412;8.790;2023-02-13T17:52:24;96294.38;;;1.62;100.00
68889;BME280;55930;47.412;8.790;2023-02-13T17:55:46;96296.94;;;1.92;100.00
68889;BME280;55930;47.412;8.790;2023-02-13T17:59:06;96290.31;;;1.65;100.00
68889;BME280;55930;47.412;8.790;2023-02-13T18:02:27;96291.75;;;1.59;100.00
68889;BME280;55930;47.412;8.790;2023-02-13T18:05:50;96295.75;;;1.52;100.00
68889;BME280;55930;47.412;8.790;2023-02-13T18:09:11;96294.09;;;1.37;100.00
68889;BME280;55930;47.412;8.790;2023-02-13T18:12:31;96285.97;;;1.46;100.00
68889;BME280;55930;47.412;8.790;2023-02-13T18:15:52;96286.94;;;1.31;100.00
68889;BME280;55930;47.412;8.790;2023-02-13T18:19:15;96296.38;;;1.09;100.00
68889;BME280;55930;47.412;8.790;2023-02-13T18:22:36;96290.03;;;1.10;100.00
68889;BME280;55930;47.412;8.790;2023-02-13T18:26:05;96301.44;;;0.98;100.00
68889;BME280;55930;47.412;8.790;2023-02-13T18:29:26;96299.91;;;0.94;100.00
68889;BME280;55930;47.412;8.790;2023-02-13T18:32:52;96300.44;;;1.06;100.00
68889;BME280;55930;47.412;8.790;2023-02-13T18:36:13;96301.75;;;0.93;100.00
68889;BME280;55930;47.412;8.790;2023-02-13T18:39:34;96299.41;;;0.85;100.00
68889;BME280;55930;47.412;8.790;2023-02-13T18:42:54;96299.56;;;0.69;100.00
68889;BME280;55930;47.412;8.790;2023-02-13T18:46:15;96299.72;;;0.80;100.00
68889;BME280;55930;47.412;8.790;2023-02-13T18:49:35;96303.69;;;0.70;100.00
68889;BME280;55930;47.412;8.790;2023-02-13T18:52:56;96294.03;;;0.74;100.00
68889;BME280;55930;47.412;8.790;2023-02-13T18:56:18;96302.41;;;0.60;100.00
68889;BME280;55930;47.412;8.790;2023-02-13T18:59:43;96297.72;;;0.47;100.00
68889;BME280;55930;47.412;8.790;2023-02-13T19:03:04;96298.53;;;0.51;100.00
68889;BME280;55930;47.412;8.790;2023-02-13T19:06:26;96295.97;;;0.54;100.00
68889;BME280;55930;47.412;8.790;2023-02-13T19:09:46;96292.72;;;0.61;100.00
68889;BME280;55930;47.412;8.790;2023-02-13T19:13:09;96296.84;;;0.62;100.00
68889;BME280;55930;47.412;8.790;2023-02-13T19:16:32;96296.47;;;0.37;100.00
68889;BME280;55930;47.412;8.790;2023-02-13T19:19:52;96288.53;;;0.56;100.00
68889;BME280;55930;47.412;8.790;2023-02-13T19:23:14;96283.81;;;0.65;100.00
68889;BME280;55930;47.412;8.790;2023-02-13T19:26:35;96284.41;;;0.78;100.00
68889;BME280;55930;47.412;8.790;2023-02-13T19:29:56;96279.34;;;0.92;100.00
68889;BME280;55930;47.412;8.790;2023-02-13T19:33:16;96287.59;;;0.94;100.00
68889;BME280;55930;47.412;8.790;2023-02-13T19:36:36;96294.56;;;0.60;100.00
68889;BME280;55930;47.412;8.790;2023-02-13T19:39:57;96303.88;;;0.35;100.00
68889;BME280;55930;47.412;8.790;2023-02-13T19:43:17;96298.25;;;0.56;100.00
68889;BME280;55930;47.412;8.790;2023-02-13T19:46:38;96298.53;;;0.28;100.00
68889;BME280;55930;47.412;8.790;2023-02-13T19:49:58;96297.03;;;0.27;100.00
68889;BME280;55930;47.412;8.790;2023-02-13T19:53:21;96301.81;;;0.21;100.00
68889;BME280;55930;47.412;8.790;2023-02-13T19:56:41;96306.38;;;0.28;100.00
68889;BME280;55930;47.412;8.790;2023-02-13T20:00:03;96303.59;;;0.17;100.00
68889;BME280;55930;47.412;8.790;2023-02-13T20:03:24;96301.03;;;-0.02;100.00
68889;BME280;55930;47.412;8.790;2023-02-13T20:06:44;96300.91;;;-0.09;100.00
68889;BME280;55930;47.412;8.790;2023-02-13T20:10:05;96304.53;;;-0.14;100.00
68889;BME280;55930;47.412;8.790;2023-02-13T20:13:27;96292.72;;;-0.08;100.00
68889;BME280;55930;47.412;8.790;2023-02-13T20:16:47;96304.75;;;-0.03;100.00
68889;BME280;55930;47.412;8.790;2023-02-13T20:20:08;96297.56;;;-0.10;100.00
68889;BME280;55930;47.412;8.790;2023-02-13T20:23:29;96305.31;;;0.10;100.00
68889;BME280;55930;47.412;8.790;2023-02-13T20:26:49;96307.53;;;0.30;100.00
68889;BME280;55930;47.412;8.790;2023-02-13T20:30:13;96307.53;;;0.30;100.00
68889;BME280;55930;47.412;8.790;2023-02-13T20:33:35;96304.22;;;0.11;100.00
68889;BME280;55930;47.412;8.790;2023-02-13T20:36:55;96302.25;;;0.04;100.00
68889;BME280;55930;47.412;8.790;2023-02-13T20:40:16;96306.41;;;-0.14;100.00
68889;BME280;55930;47.412;8.790;2023-02-13T20:43:37;96307.88;;;-0.36;100.00
68889;BME280;55930;47.412;8.790;2023-02-13T20:46:57;96304.94;;;-0.34;100.00
68889;BME280;55930;47.412;8.790;2023-02-13T20:50:22;96301.91;;;-0.36;100.00
68889;BME280;55930;47.412;8.790;2023-02-13T20:53:44;96311.38;;;-0.28;100.00
68889;BME280;55930;47.412;8.790;2023-02-13T20:57:05;96306.69;;;-0.39;100.00